Terminal Aerodrome Forecast
Issued by NWS Duluth, MN

Home | Current Version | Previous Version | Text Only | Print | Product List | Glossary On
Versions: 1 2 3 4 5 6 7 8 9 10 11 12 13 14 15 16 17 18 19 20 21 22 23 24 25 26 27
000
FTUS43 KDLH 190500
TAFINL
TAF
KINL 190538Z 1906/2006 VRB03KT P6SM OVC011
     FM191200 15004KT P6SM OVC012
     FM191500 16006KT 6SM -SN BR OVC014
     FM200100 15004KT 4SM BR OVC005=

USA.gov is the U.S. government's official web portal to all federal, state and local government web resources and services.